Decoded Metar for PKWA (KWAJALEIN in MARSHALL ISLANDS) (IATA:KWA) | Meteo·Mobile Aviation Weather
aviador You're here:

PKWA Decoded Metar

KWAJALEIN in MARSHALL ISLANDS
Report Time2019-10-21 07:00:00
UTC Time2019-10-21 07:09:54
Flight Rules vfr VFR
Wind100° at 05 kt
W.Decomp.*RWY 06: 4.3 kt HW 2.6 kt RCW
Visibility9999 m
Phenomena:N/A
Clouds:N/A
Expected CloudBase > 2,000 ft AGL from Temp-Dew spread
CeilingNone
Temp29°C (ISA +14)
Dew Point24°C (74% RH)
Heat Index33.5°C
QNH1009 hPa
Density Alt2,165 ft
Elevation26 ft
Report Wrong Elevation
Raw Report
METAR PKWA 210700Z AUTO 10005KT 10SM CLR 29/24 A2979 RMK AO2 T02940243=

Extra information for PKWA:More info

Metar Taf Metar & Taf Last 4 Metars F.Rules Stats Wind Profile Meteogram Temp Stats Airport Information Weather charts Add Link Nearby VenuesMetar ALERT Operation Metar Decoded Social comments